Time;durP1;ratioP1;P1;durP2;ratioP2;P2;SDS_P1;SDS_P2;PMS_P1;PMS_P2;Temp;Humidity;BMP_temperature;BMP_pressure;BME280_temperature;BME280_humidity;BME280_pressure;Samples;Min_cycle;Max_cycle;Signal;HPM_P1;HPM_P2
2023/05/13 00:00:46;;;;;;;12.53;11.33;;;15.10;93.80;;;;;;5076624;28;20952;-57
2023/05/13 00:03:12;;;;;;;13.43;12.10;;;15.00;93.80;;;;;;5076940;28;20463;-56
2023/05/13 00:05:39;;;;;;;11.30;10.27;;;15.00;93.70;;;;;;5076790;28;20471;-57
2023/05/13 00:08:07;;;;;;;11.70;10.57;;;14.90;93.70;;;;;;5076511;28;20517;-56
2023/05/13 00:10:34;;;;;;;12.37;10.70;;;14.80;93.50;;;;;;5076632;28;20467;-57
2023/05/13 00:13:01;;;;;;;13.07;11.83;;;14.80;93.70;;;;;;5065640;28;20449;-57
2023/05/13 00:15:28;;;;;;;12.80;11.50;;;14.80;93.80;;;;;;5056253;28;20837;-57
2023/05/13 00:17:56;;;;;;;12.73;11.63;;;14.80;94.10;;;;;;5056545;28;20449;-56
2023/05/13 00:20:23;;;;;;;15.53;13.93;;;14.80;94.60;;;;;;5056557;28;20540;-57
2023/05/13 00:22:49;;;;;;;13.20;12.00;;;14.90;95.00;;;;;;5056314;28;20445;-57
2023/05/13 00:25:18;;;;;;;13.63;12.50;;;14.80;94.80;;;;;;5056392;28;20474;-56
2023/05/13 00:27:44;;;;;;;13.83;12.63;;;14.80;94.70;;;;;;5056137;28;20449;-56
2023/05/13 00:30:12;;;;;;;12.93;11.67;;;14.80;94.70;;;;;;5056212;28;20488;-57
2023/05/13 00:32:38;;;;;;;14.03;12.70;;;14.70;94.70;;;;;;5056249;28;20455;-56
2023/05/13 00:35:06;;;;;;;14.03;12.70;;;14.80;94.80;;;;;;5056202;28;20469;-57
2023/05/13 00:37:32;;;;;;;15.70;14.20;;;14.80;95.00;;;;;;5056159;28;20446;-57
2023/05/13 00:39:59;;;;;;;16.93;15.37;;;14.80;95.20;;;;;;5056171;28;20445;-57
2023/05/13 00:42:27;;;;;;;13.30;12.10;;;14.80;95.40;;;;;;5055721;28;20958;-57
2023/05/13 00:44:54;;;;;;;14.70;13.20;;;14.70;95.30;;;;;;5055952;28;20473;-57
2023/05/13 00:47:22;;;;;;;14.40;13.00;;;14.80;95.20;;;;;;5056031;28;20890;-57
2023/05/13 00:49:49;;;;;;;14.73;13.23;;;14.70;95.10;;;;;;5055568;28;21002;-57
2023/05/13 00:52:15;;;;;;;13.90;12.60;;;14.70;95.00;;;;;;5055817;28;20445;-57
2023/05/13 00:54:42;;;;;;;13.83;12.40;;;14.60;94.90;;;;;;5055834;28;20476;-57
2023/05/13 00:57:09;;;;;;;14.47;12.77;;;14.50;94.60;;;;;;5056382;28;20453;-56
2023/05/13 00:59:37;;;;;;;13.10;11.90;;;14.50;94.60;;;;;;5055459;28;20449;-57
2023/05/13 01:02:16;;;;;;;14.20;12.90;;;14.50;94.50;;;;;;5055767;28;20450;-57
2023/05/13 01:04:48;;;;;;;14.20;13.00;;;14.40;94.50;;;;;;5055399;28;20994;-57
2023/05/13 01:07:41;;;;;;;15.93;14.43;;;14.50;94.80;;;;;;5055684;28;20492;-57
2023/05/13 01:10:13;;;;;;;15.60;14.10;;;14.50;95.10;;;;;;5054643;28;20470;-56
2023/05/13 01:12:43;;;;;;;14.90;13.63;;;14.50;95.20;;;;;;5055562;28;20430;-56
2023/05/13 01:15:15;;;;;;;25.93;13.77;;;14.50;95.20;;;;;;5055453;28;20504;-56
2023/05/13 01:17:47;;;;;;;16.00;14.60;;;14.50;95.40;;;;;;5055515;28;20814;-57
2023/05/13 01:20:14;;;;;;;15.40;14.00;;;14.50;95.30;;;;;;5056007;28;20435;-57
2023/05/13 01:22:42;;;;;;;14.83;13.43;;;14.50;95.30;;;;;;5055700;28;20455;-57
2023/05/13 01:25:09;;;;;;;14.60;13.17;;;14.40;95.40;;;;;;5056559;28;20461;-57
2023/05/13 01:27:36;;;;;;;14.00;12.80;;;14.40;95.40;;;;;;5055609;28;21049;-57
2023/05/13 01:30:03;;;;;;;14.80;13.40;;;14.30;95.10;;;;;;5055418;28;20511;-57
2023/05/13 01:32:30;;;;;;;14.67;13.27;;;14.30;95.40;;;;;;5055192;28;20460;-57
2023/05/13 01:34:57;;;;;;;14.40;12.97;;;14.30;95.50;;;;;;5055151;28;20473;-57
2023/05/13 01:37:24;;;;;;;14.33;13.13;;;14.20;95.20;;;;;;5055239;28;20456;-56
2023/05/13 01:39:52;;;;;;;15.53;14.20;;;14.20;95.30;;;;;;5054817;28;20966;-57
2023/05/13 01:42:19;;;;;;;14.43;13.07;;;14.20;95.30;;;;;;5055051;28;20453;-56
2023/05/13 01:44:46;;;;;;;14.77;13.47;;;14.20;95.30;;;;;;5055044;28;20473;-57
2023/05/13 01:47:12;;;;;;;16.43;14.73;;;14.10;95.30;;;;;;5055188;28;20446;-57
2023/05/13 01:49:39;;;;;;;16.30;13.40;;;14.10;95.40;;;;;;5054954;28;20487;-56
2023/05/13 01:52:06;;;;;;;16.90;13.20;;;14.10;95.50;;;;;;5054811;28;20552;-57
2023/05/13 01:54:33;;;;;;;15.67;13.83;;;14.10;95.60;;;;;;5054791;28;20465;-56
2023/05/13 01:57:01;;;;;;;16.07;14.57;;;14.10;95.90;;;;;;5054940;28;20453;-56
2023/05/13 01:59:27;;;;;;;14.80;13.40;;;14.10;95.60;;;;;;5054767;28;20496;-57
2023/05/13 02:01:54;;;;;;;16.43;14.83;;;14.10;95.70;;;;;;5054765;28;20499;-57
2023/05/13 02:04:21;;;;;;;15.40;13.93;;;14.10;95.80;;;;;;5054543;28;20465;-57
2023/05/13 02:06:48;;;;;;;15.97;14.47;;;14.00;96.00;;;;;;5054565;28;20450;-57
2023/05/13 02:09:15;;;;;;;14.80;13.50;;;14.00;96.00;;;;;;5053923;28;20457;-56
2023/05/13 02:11:42;;;;;;;15.30;13.90;;;14.00;95.80;;;;;;5054503;28;20456;-57
2023/05/13 02:14:10;;;;;;;15.93;14.00;;;14.00;95.80;;;;;;5054223;28;20971;-57
2023/05/13 02:16:36;;;;;;;16.70;15.20;;;13.90;95.70;;;;;;5054453;28;20456;-57
2023/05/13 02:19:03;;;;;;;14.57;13.37;;;14.00;95.90;;;;;;5054353;28;20884;-57
2023/05/13 02:21:30;;;;;;;17.23;13.40;;;13.90;95.90;;;;;;5054274;28;20450;-57
2023/05/13 02:23:57;;;;;;;14.87;13.50;;;13.80;95.70;;;;;;5054174;28;20461;-57
2023/05/13 02:26:24;;;;;;;16.30;14.87;;;13.80;95.80;;;;;;5054196;28;20449;-57
2023/05/13 02:28:51;;;;;;;15.30;12.87;;;13.80;96.00;;;;;;5054106;28;20457;-57
2023/05/13 02:31:19;;;;;;;15.87;14.00;;;13.80;96.20;;;;;;5053955;28;20508;-57
2023/05/13 02:33:45;;;;;;;15.73;14.33;;;13.80;96.30;;;;;;5053981;28;20442;-57
2023/05/13 02:36:12;;;;;;;15.67;13.10;;;13.80;96.40;;;;;;5054000;28;20477;-56
2023/05/13 02:38:39;;;;;;;15.87;14.47;;;13.80;96.50;;;;;;5053593;28;20966;-56
2023/05/13 02:41:06;;;;;;;16.03;14.53;;;13.80;96.70;;;;;;5053887;28;20449;-57
2023/05/13 02:43:32;;;;;;;16.37;14.93;;;13.80;96.80;;;;;;5053800;28;20456;-56
2023/05/13 02:45:59;;;;;;;16.50;15.00;;;13.80;96.90;;;;;;5053721;28;20469;-57
2023/05/13 02:48:27;;;;;;;16.20;14.80;;;13.80;96.90;;;;;;5053845;28;20449;-57
2023/05/13 02:50:54;;;;;;;15.97;14.57;;;13.80;97.10;;;;;;5053672;28;20477;-57
2023/05/13 02:53:21;;;;;;;16.20;14.80;;;13.80;97.10;;;;;;5053754;28;20475;-57
2023/05/13 02:55:47;;;;;;;16.07;14.53;;;13.80;97.00;;;;;;5053697;28;20473;-57
2023/05/13 02:58:14;;;;;;;16.07;14.60;;;13.80;97.10;;;;;;5053613;28;20452;-57
2023/05/13 03:00:41;;;;;;;16.37;14.87;;;13.80;97.10;;;;;;5053500;28;20446;-57
2023/05/13 03:03:08;;;;;;;15.43;14.03;;;13.80;97.10;;;;;;5053268;28;20911;-56
2023/05/13 03:05:36;;;;;;;15.90;14.50;;;13.80;97.10;;;;;;5053430;28;20492;-56
2023/05/13 03:08:03;;;;;;;16.27;14.67;;;13.80;97.10;;;;;;5053248;28;20461;-57
2023/05/13 03:10:30;;;;;;;16.13;14.70;;;13.80;97.20;;;;;;5053352;28;20485;-57
2023/05/13 03:12:56;;;;;;;15.87;14.37;;;13.80;97.30;;;;;;5054352;28;20468;-57
2023/05/13 03:15:23;;;;;;;15.27;13.93;;;13.80;97.30;;;;;;5052994;28;20473;-57
2023/05/13 03:17:50;;;;;;;15.80;14.40;;;13.80;97.30;;;;;;5053304;28;20449;-57
2023/05/13 03:20:17;;;;;;;17.17;15.47;;;13.80;97.10;;;;;;5053339;28;20441;-57
2023/05/13 03:22:45;;;;;;;15.33;13.93;;;13.80;96.90;;;;;;5052902;28;20873;-56
2023/05/13 03:25:12;;;;;;;16.40;14.83;;;13.70;96.90;;;;;;5053184;28;20496;-56
2023/05/13 03:27:39;;;;;;;15.60;14.20;;;13.70;96.90;;;;;;5053162;28;20453;-56
2023/05/13 03:30:06;;;;;;;18.53;16.80;;;13.70;97.00;;;;;;5052840;28;21132;-56
2023/05/13 03:32:34;;;;;;;16.13;14.53;;;13.70;97.30;;;;;;5057093;28;20453;-56
2023/05/13 03:35:01;;;;;;;14.57;13.37;;;13.70;97.40;;;;;;5059717;28;20833;-56
2023/05/13 03:37:27;;;;;;;15.67;14.37;;;13.70;97.30;;;;;;5059738;28;20472;-56
2023/05/13 03:39:55;;;;;;;18.57;16.77;;;13.70;97.30;;;;;;5059414;28;20943;-57
2023/05/13 03:42:23;;;;;;;16.40;14.90;;;13.70;97.50;;;;;;5059689;28;20445;-57
2023/05/13 03:44:49;;;;;;;15.93;14.57;;;13.70;97.60;;;;;;5059759;28;20557;-56
2023/05/13 03:47:16;;;;;;;23.57;15.50;;;13.70;97.70;;;;;;5059842;28;20456;-56
2023/05/13 03:49:43;;;;;;;16.10;14.47;;;13.70;97.80;;;;;;5059932;28;20457;-56
2023/05/13 03:52:10;;;;;;;15.20;13.97;;;13.70;97.80;;;;;;5059721;28;20481;-56
2023/05/13 03:54:36;;;;;;;17.30;15.60;;;13.70;97.90;;;;;;5059817;28;20469;-57
2023/05/13 03:57:06;;;;;;;16.30;14.90;;;13.70;98.10;;;;;;5059835;28;20453;-57
2023/05/13 03:59:33;;;;;;;16.50;14.80;;;13.70;98.10;;;;;;5059823;28;20449;-56
2023/05/13 04:01:59;;;;;;;16.70;15.30;;;13.70;98.20;;;;;;5059939;28;20445;-57
2023/05/13 04:04:26;;;;;;;14.33;13.10;;;13.70;98.30;;;;;;5059644;28;20464;-56
2023/05/13 04:06:53;;;;;;;16.53;15.03;;;13.80;98.30;;;;;;5059284;28;20457;-57
2023/05/13 04:09:19;;;;;;;16.80;15.20;;;13.80;98.30;;;;;;5059147;28;20870;-57
2023/05/13 04:11:46;;;;;;;16.00;14.60;;;13.80;98.40;;;;;;5059474;28;20489;-57
2023/05/13 04:14:14;;;;;;;17.37;15.87;;;13.80;98.40;;;;;;5059421;28;20476;-57
2023/05/13 04:16:41;;;;;;;18.13;16.23;;;13.80;98.40;;;;;;5059512;28;20445;-57
2023/05/13 04:19:09;;;;;;;16.10;14.43;;;13.80;98.50;;;;;;5059433;28;20447;-57
2023/05/13 04:21:35;;;;;;;15.43;14.10;;;13.90;98.50;;;;;;5059454;28;20441;-57
2023/05/13 04:24:02;;;;;;;17.20;15.80;;;13.90;98.60;;;;;;5059388;28;20815;-57
2023/05/13 04:26:28;;;;;;;16.77;15.20;;;13.80;98.60;;;;;;5059472;28;20453;-57
2023/05/13 04:28:55;;;;;;;18.10;16.17;;;13.90;98.80;;;;;;5059555;28;20460;-57
2023/05/13 04:31:23;;;;;;;18.77;17.07;;;13.90;99.00;;;;;;5059762;28;20492;-57
2023/05/13 04:33:50;;;;;;;17.50;15.80;;;14.00;99.10;;;;;;5060461;28;20445;-57
2023/05/13 04:36:16;;;;;;;16.73;15.23;;;14.00;99.20;;;;;;5060197;28;20445;-57
2023/05/13 04:38:43;;;;;;;18.17;16.50;;;14.10;99.30;;;;;;5059883;28;20453;-57
2023/05/13 04:41:10;;;;;;;17.30;15.73;;;14.10;99.30;;;;;;5059502;28;20475;-57
2023/05/13 04:43:37;;;;;;;16.43;14.90;;;14.10;99.30;;;;;;5056656;28;20453;-57
2023/05/13 04:46:03;;;;;;;17.97;16.50;;;14.10;99.30;;;;;;5064869;28;20469;-56
2023/05/13 04:48:31;;;;;;;17.80;16.10;;;14.20;99.40;;;;;;5076208;28;20447;-57
2023/05/13 04:50:58;;;;;;;17.23;15.50;;;14.20;99.40;;;;;;5075706;28;21020;-57
2023/05/13 04:53:25;;;;;;;16.43;15.00;;;14.20;99.40;;;;;;5075958;28;20459;-57
2023/05/13 04:55:56;;;;;;;17.83;16.13;;;14.30;99.40;;;;;;5075988;28;20472;-57
2023/05/13 04:58:23;;;;;;;18.47;15.43;;;14.30;99.40;;;;;;5076077;28;20472;-57
2023/05/13 05:00:50;;;;;;;17.57;15.77;;;14.40;99.40;;;;;;5075916;28;20445;-57
2023/05/13 05:03:17;;;;;;;16.33;14.93;;;14.40;99.30;;;;;;5075869;28;20448;-57
2023/05/13 05:05:45;;;;;;;17.60;16.03;;;14.40;99.30;;;;;;5075605;28;20810;-57
2023/05/13 05:08:11;;;;;;;16.50;14.90;;;14.50;99.30;;;;;;5075582;28;20530;-57
2023/05/13 05:10:38;;;;;;;16.20;14.40;;;14.50;99.20;;;;;;5075712;28;20818;-57
2023/05/13 05:13:05;;;;;;;17.00;15.33;;;14.50;99.20;;;;;;5075416;28;20444;-57
2023/05/13 05:15:31;;;;;;;15.80;14.27;;;14.50;99.30;;;;;;5075615;28;20877;-57
2023/05/13 05:17:58;;;;;;;16.00;14.60;;;14.60;99.30;;;;;;5075444;28;20804;-56
2023/05/13 05:20:25;;;;;;;15.57;14.07;;;14.70;99.40;;;;;;5075242;28;20868;-57
2023/05/13 05:22:53;;;;;;;15.90;14.47;;;14.80;99.30;;;;;;5075565;28;20444;-57
2023/05/13 05:25:19;;;;;;;15.00;13.70;;;14.80;98.90;;;;;;5075428;28;20473;-57
2023/05/13 05:27:46;;;;;;;16.83;15.23;;;14.90;98.90;;;;;;5075364;28;20455;-57
2023/05/13 05:30:14;;;;;;;16.47;15.07;;;15.00;99.00;;;;;;5075282;28;20452;-57
2023/05/13 05:32:41;;;;;;;15.77;14.37;;;15.00;98.80;;;;;;5075100;28;20481;-57
2023/05/13 05:35:08;;;;;;;15.40;14.13;;;15.00;98.90;;;;;;5074874;28;20464;-57
2023/05/13 05:37:35;;;;;;;15.03;13.53;;;15.00;98.80;;;;;;5075194;28;20468;-57
2023/05/13 05:40:04;;;;;;;16.97;14.40;;;15.00;98.80;;;;;;5075049;28;20539;-57
2023/05/13 05:42:30;;;;;;;15.60;14.10;;;15.00;98.80;;;;;;5075073;28;20472;-57
2023/05/13 05:44:57;;;;;;;15.43;13.93;;;15.10;98.70;;;;;;5075020;28;20468;-57
2023/05/13 05:47:24;;;;;;;16.40;14.90;;;15.00;98.60;;;;;;5074949;28;20452;-57
2023/05/13 05:49:50;;;;;;;15.27;13.97;;;15.00;98.50;;;;;;5074455;28;20969;-57
2023/05/13 05:52:17;;;;;;;20.33;14.50;;;14.90;98.50;;;;;;5074821;28;20477;-57
2023/05/13 05:54:44;;;;;;;15.10;13.70;;;14.90;98.60;;;;;;5074129;28;20472;-57
2023/05/13 05:57:12;;;;;;;15.83;13.60;;;14.90;98.60;;;;;;5074793;28;20475;-57
2023/05/13 05:59:38;;;;;;;16.23;14.77;;;14.90;98.60;;;;;;5074705;28;20476;-57
2023/05/13 06:02:06;;;;;;;16.83;15.07;;;14.90;98.70;;;;;;5074697;28;20517;-57
2023/05/13 06:04:32;;;;;;;19.53;15.33;;;14.90;98.70;;;;;;5074614;28;20498;-57
2023/05/13 06:06:59;;;;;;;16.77;15.00;;;15.00;98.80;;;;;;5074489;28;20453;-57
2023/05/13 06:09:26;;;;;;;16.07;14.57;;;15.00;98.80;;;;;;5074110;28;20464;-57
2023/05/13 06:11:52;;;;;;;16.30;14.80;;;15.10;98.80;;;;;;5074274;28;20476;-57
2023/05/13 06:14:20;;;;;;;16.90;15.00;;;15.20;98.80;;;;;;5074130;28;20469;-56
2023/05/13 06:16:47;;;;;;;16.43;14.70;;;15.20;98.60;;;;;;5074282;28;20457;-57
2023/05/13 06:19:14;;;;;;;17.50;15.80;;;15.30;98.70;;;;;;5074279;28;20444;-57
2023/05/13 06:21:41;;;;;;;16.97;14.60;;;15.30;98.60;;;;;;5074312;28;20444;-57
2023/05/13 06:24:08;;;;;;;16.87;15.07;;;15.40;98.60;;;;;;5074097;28;20452;-58
2023/05/13 06:26:35;;;;;;;16.43;14.93;;;15.60;98.60;;;;;;5074295;28;20518;-58
2023/05/13 06:29:02;;;;;;;14.13;12.87;;;15.70;98.50;;;;;;5073628;28;20826;-57
2023/05/13 06:31:30;;;;;;;17.23;15.57;;;15.90;98.20;;;;;;5074065;28;20914;-58
2023/05/13 06:33:57;;;;;;;16.00;14.20;;;16.00;98.10;;;;;;5073955;28;20480;-57
2023/05/13 06:36:24;;;;;;;15.17;13.70;;;16.30;98.10;;;;;;5074032;28;20456;-59
2023/05/13 06:38:50;;;;;;;14.27;12.97;;;16.40;97.90;;;;;;5074018;28;20444;-58
2023/05/13 06:41:17;;;;;;;15.40;14.10;;;16.60;97.50;;;;;;5073787;28;20455;-57
2023/05/13 06:43:44;;;;;;;15.70;14.20;;;16.70;97.20;;;;;;5073659;28;20451;-58
2023/05/13 06:46:11;;;;;;;15.77;14.17;;;16.90;96.80;;;;;;5073502;28;20838;-57
2023/05/13 06:48:39;;;;;;;14.80;13.30;;;17.00;96.50;;;;;;5073866;28;20527;-56
2023/05/13 06:51:06;;;;;;;14.83;13.53;;;17.10;96.20;;;;;;5073903;28;20484;-56
2023/05/13 06:53:33;;;;;;;15.20;13.73;;;17.20;96.00;;;;;;5075156;28;20451;-56
2023/05/13 06:55:59;;;;;;;16.03;13.33;;;17.30;96.00;;;;;;5075324;28;20468;-56
2023/05/13 06:58:26;;;;;;;16.10;13.83;;;17.40;96.10;;;;;;5063762;28;20445;-56
2023/05/13 07:00:53;;;;;;;14.43;12.93;;;17.40;95.80;;;;;;5053743;28;20449;-57
2023/05/13 07:03:19;;;;;;;13.70;12.50;;;17.50;95.70;;;;;;5053659;28;20442;-56
2023/05/13 07:05:47;;;;;;;16.07;13.93;;;17.50;95.30;;;;;;5053479;28;20473;-56
2023/05/13 07:08:16;;;;;;;13.40;12.30;;;17.60;95.20;;;;;;5052758;28;20457;-57
2023/05/13 07:10:43;;;;;;;14.13;12.47;;;17.70;95.10;;;;;;5053016;28;20453;-56
2023/05/13 07:13:11;;;;;;;14.10;12.40;;;17.70;94.70;;;;;;5053330;28;20565;-57
2023/05/13 07:15:38;;;;;;;15.17;13.70;;;17.90;94.50;;;;;;5053275;28;20469;-57
2023/05/13 07:18:05;;;;;;;15.50;13.97;;;17.90;94.10;;;;;;5053321;28;20536;-57
2023/05/13 07:20:31;;;;;;;15.00;13.57;;;18.00;93.70;;;;;;5053272;28;20449;-57
2023/05/13 07:22:59;;;;;;;14.60;13.33;;;18.10;93.40;;;;;;5053046;28;20441;-57
2023/05/13 07:25:26;;;;;;;13.10;11.83;;;18.20;93.40;;;;;;5053216;28;20474;-57
2023/05/13 07:27:53;;;;;;;14.43;12.87;;;18.30;93.40;;;;;;5053221;28;20457;-57
2023/05/13 07:30:19;;;;;;;15.00;13.60;;;18.40;93.00;;;;;;5053220;28;20460;-57
2023/05/13 07:32:46;;;;;;;13.40;11.77;;;18.50;92.90;;;;;;5053281;28;20488;-57
2023/05/13 07:35:13;;;;;;;12.63;11.33;;;18.60;92.00;;;;;;5053167;28;20476;-57
2023/05/13 07:37:40;;;;;;;13.23;12.10;;;18.70;92.10;;;;;;5054054;28;20503;-57
2023/05/13 07:40:09;;;;;;;13.40;12.10;;;18.70;91.90;;;;;;5054382;28;20449;-57
2023/05/13 07:42:37;;;;;;;13.70;12.50;;;18.70;91.60;;;;;;5053871;28;20507;-57
2023/05/13 07:45:04;;;;;;;12.30;11.20;;;18.60;91.50;;;;;;5053535;28;20983;-57
2023/05/13 07:47:32;;;;;;;13.97;12.70;;;18.80;91.90;;;;;;5053048;28;20438;-56
2023/05/13 07:49:59;;;;;;;14.17;12.73;;;18.90;91.70;;;;;;5054934;28;20870;-56
2023/05/13 07:52:26;;;;;;;12.87;11.77;;;19.00;90.80;;;;;;5065306;28;20479;-56
2023/05/13 07:54:54;;;;;;;15.10;13.73;;;19.10;90.60;;;;;;5069162;28;20863;-56
2023/05/13 07:57:22;;;;;;;15.70;13.33;;;19.20;90.20;;;;;;5057889;28;20449;-57
2023/05/13 07:59:49;;;;;;;12.97;11.90;;;19.30;90.20;;;;;;5070248;28;20452;-56
2023/05/13 08:02:15;;;;;;;11.33;10.43;;;19.50;89.30;;;;;;5073086;28;20449;-57
2023/05/13 08:04:42;;;;;;;13.27;12.10;;;19.70;89.80;;;;;;5069058;28;20478;-57
2023/05/13 08:07:10;;;;;;;13.30;12.10;;;20.00;89.30;;;;;;5072999;28;20449;-57
2023/05/13 08:09:37;;;;;;;12.70;11.20;;;20.10;87.50;;;;;;5072762;28;20452;-57
2023/05/13 08:12:04;;;;;;;14.43;11.67;;;20.20;86.70;;;;;;5070963;28;20476;-58
2023/05/13 08:14:31;;;;;;;12.33;11.17;;;20.30;86.00;;;;;;5072551;28;20986;-57
2023/05/13 08:16:58;;;;;;;11.73;10.47;;;20.50;85.80;;;;;;5072507;28;20826;-57
2023/05/13 08:19:25;;;;;;;10.13;9.20;;;20.70;85.00;;;;;;5075950;28;20452;-58
2023/05/13 08:21:51;;;;;;;11.57;10.47;;;20.90;83.60;;;;;;5076691;28;20452;-58
2023/05/13 08:24:18;;;;;;;11.33;10.20;;;21.10;83.90;;;;;;5076478;28;20518;-58
2023/05/13 08:26:46;;;;;;;10.13;9.23;;;21.30;80.90;;;;;;5076163;28;20954;-58
2023/05/13 08:29:14;;;;;;;11.00;9.90;;;21.60;80.50;;;;;;5076273;28;20483;-57
2023/05/13 08:31:42;;;;;;;10.87;9.97;;;21.80;78.00;;;;;;5076467;28;20480;-58
2023/05/13 08:34:09;;;;;;;10.90;9.60;;;22.00;76.60;;;;;;5056408;28;20819;-57
2023/05/13 08:36:36;;;;;;;9.77;8.87;;;22.30;75.60;;;;;;5057066;28;21011;-57
2023/05/13 08:39:03;;;;;;;11.80;9.20;;;22.60;76.70;;;;;;5056070;28;20826;-57
2023/05/13 08:41:30;;;;;;;11.70;10.47;;;22.80;76.00;;;;;;5056261;28;20476;-58
2023/05/13 08:43:58;;;;;;;10.93;10.03;;;22.80;73.50;;;;;;5056110;28;20484;-57
2023/05/13 08:46:27;;;;;;;13.90;12.50;;;22.80;72.00;;;;;;5056167;28;20445;-58
2023/05/13 08:48:56;;;;;;;10.10;9.10;;;22.70;71.70;;;;;;5056084;28;20449;-58
2023/05/13 08:51:23;;;;;;;10.67;9.67;;;22.70;72.20;;;;;;5056019;28;20822;-57
2023/05/13 08:53:52;;;;;;;11.87;10.60;;;22.70;73.00;;;;;;5055939;28;20449;-58
2023/05/13 08:56:21;;;;;;;12.67;11.40;;;22.70;73.50;;;;;;5055933;28;20492;-58
2023/05/13 08:58:47;;;;;;;11.33;10.10;;;22.70;72.50;;;;;;5055911;28;20456;-58
2023/05/13 09:01:15;;;;;;;8.63;8.00;;;22.60;71.10;;;;;;5055942;28;20449;-57
2023/05/13 09:03:52;;;;;;;10.03;9.13;;;22.60;71.50;;;;;;5055879;28;20449;-57
2023/05/13 09:06:20;;;;;;;11.57;10.37;;;22.60;71.90;;;;;;5055809;28;20436;-58
2023/05/13 09:08:47;;;;;;;9.93;9.00;;;22.50;72.50;;;;;;5055444;28;20469;-58
2023/05/13 09:11:14;;;;;;;9.67;8.87;;;22.60;73.60;;;;;;5055337;28;20943;-57
2023/05/13 09:13:43;;;;;;;10.00;9.00;;;22.50;73.60;;;;;;5055619;28;20493;-57
2023/05/13 09:16:11;;;;;;;9.13;8.23;;;22.60;74.50;;;;;;5055175;28;20858;-58
2023/05/13 09:18:39;;;;;;;10.23;9.23;;;22.90;76.50;;;;;;5055497;28;20453;-58
2023/05/13 09:21:25;;;;;;;11.20;7.53;;;23.30;76.30;;;;;;5055438;28;20445;-58
2023/05/13 09:24:02;;;;;;;8.77;7.97;;;23.50;71.50;;;;;;5055126;28;20930;-57
2023/05/13 09:26:30;;;;;;;8.90;8.10;;;23.80;71.40;;;;;;5055099;28;20951;-58
2023/05/13 09:29:16;;;;;;;8.00;7.27;;;24.00;70.30;;;;;;5055235;28;20520;-58
2023/05/13 09:31:43;;;;;;;9.20;7.00;;;24.10;69.00;;;;;;5054936;28;20457;-58
2023/05/13 09:34:10;;;;;;;10.00;8.10;;;24.00;68.30;;;;;;5055143;28;20875;-58
2023/05/13 09:36:38;;;;;;;9.80;8.03;;;24.00;67.70;;;;;;5054888;28;20808;-58
2023/05/13 09:39:05;;;;;;;8.60;7.87;;;24.00;67.50;;;;;;5055096;28;20453;-58
2023/05/13 09:41:32;;;;;;;8.20;6.73;;;24.00;67.80;;;;;;5054857;28;20441;-57
2023/05/13 09:44:01;;;;;;;8.23;7.27;;;23.90;67.90;;;;;;5054674;28;20823;-56
2023/05/13 09:46:28;;;;;;;8.10;7.40;;;23.90;66.80;;;;;;5054674;28;20824;-58
2023/05/13 09:48:57;;;;;;;8.20;7.50;;;24.00;66.90;;;;;;5055015;28;20441;-58
2023/05/13 09:51:26;;;;;;;10.13;9.37;;;24.10;65.30;;;;;;5054970;28;20457;-58
2023/05/13 09:53:54;;;;;;;8.63;7.80;;;24.10;64.40;;;;;;5054723;28;20517;-57
2023/05/13 09:56:23;;;;;;;8.53;7.83;;;24.10;64.10;;;;;;5054484;28;20459;-57
2023/05/13 09:58:53;;;;;;;9.30;7.20;;;24.10;65.20;;;;;;5054320;28;20481;-57
2023/05/13 10:01:20;;;;;;;8.03;7.33;;;24.10;65.30;;;;;;5054858;28;20816;-57
2023/05/13 10:03:47;;;;;;;11.33;6.90;;;24.20;64.90;;;;;;5054967;28;20446;-57
2023/05/13 10:06:16;;;;;;;13.30;8.27;;;24.30;64.60;;;;;;5054715;28;20466;-57
2023/05/13 10:08:45;;;;;;;9.70;6.77;;;24.50;64.40;;;;;;5054761;28;20466;-57
2023/05/13 10:11:14;;;;;;;8.27;7.50;;;24.60;64.10;;;;;;5054763;28;20452;-57
2023/05/13 10:13:42;;;;;;;11.37;8.00;;;24.70;65.30;;;;;;5054962;28;20530;-57
2023/05/13 10:16:09;;;;;;;13.32;8.50;;;25.10;66.00;;;;;;5063514;28;20450;-55
2023/05/13 10:18:36;;;;;;;9.60;6.53;;;25.60;62.60;;;;;;5054300;28;20203;-55
2023/05/13 10:21:04;;;;;;;12.10;6.90;;;26.10;58.60;;;;;;5053978;28;20829;-56
2023/05/13 10:23:33;;;;;;;10.23;6.07;;;26.30;56.20;;;;;;5054228;28;20833;-56
2023/05/13 10:26:01;;;;;;;11.50;6.63;;;26.90;57.30;;;;;;5053825;28;21038;-56
2023/05/13 10:28:29;;;;;;;8.73;6.30;;;27.70;56.20;;;;;;5054157;28;20461;-56
2023/05/13 10:30:56;;;;;;;7.33;5.37;;;28.60;53.60;;;;;;5055238;28;20810;-55
2023/05/13 10:33:23;;;;;;;9.53;5.73;;;29.40;48.90;;;;;;5064957;28;20880;-55
2023/05/13 10:36:00;;;;;;;7.33;5.80;;;29.90;46.90;;;;;;5065573;28;20468;-57
2023/05/13 10:38:43;;;;;;;5.80;5.00;;;30.60;46.20;;;;;;5074437;28;20435;-57
2023/05/13 10:41:25;;;;;;;7.20;5.80;;;31.40;43.90;;;;;;5073146;28;20928;-57
2023/05/13 10:43:58;;;;;;;7.10;6.20;;;32.20;40.90;;;;;;5074040;28;20431;-57
2023/05/13 10:46:26;;;;;;;9.33;5.77;;;33.00;38.20;;;;;;5073998;28;20530;-57
2023/05/13 10:48:58;;;;;;;7.57;6.17;;;33.60;37.50;;;;;;5073862;28;20446;-57
2023/05/13 10:51:26;;;;;;;9.77;5.27;;;34.30;35.90;;;;;;5074513;28;20429;-57
2023/05/13 10:53:54;;;;;;;5.27;4.80;;;35.00;33.20;;;;;;5073630;28;20221;-57
2023/05/13 10:56:23;;;;;;;9.03;4.17;;;35.50;33.10;;;;;;5073534;28;20201;-57
2023/05/13 10:59:00;;;;;;;8.27;4.90;;;36.10;30.40;;;;;;5073809;28;20197;-57
2023/05/13 11:01:28;;;;;;;6.10;4.47;;;36.60;28.70;;;;;;5073711;28;20185;-57
2023/05/13 11:03:58;;;;;;;5.53;5.03;;;37.00;28.50;;;;;;5073570;28;20281;-57
2023/05/13 11:06:29;;;;;;;9.05;5.22;;;37.40;27.70;;;;;;5073699;28;20208;-57
2023/05/13 11:08:56;;;;;;;6.85;4.40;;;37.70;27.30;;;;;;5073290;28;20215;-57
2023/05/13 11:11:27;;;;;;;4.55;3.72;;;38.10;26.90;;;;;;5073553;28;20198;-57
2023/05/13 11:13:54;;;;;;;5.30;4.30;;;38.50;26.10;;;;;;5073109;28;20228;-57
2023/05/13 11:16:23;;;;;;;6.65;4.20;;;38.90;25.40;;;;;;5073552;28;20205;-57
2023/05/13 11:18:51;;;;;;;5.03;4.28;;;39.20;25.30;;;;;;5073463;28;20209;-57
2023/05/13 11:21:29;;;;;;;4.60;4.25;;;39.40;24.60;;;;;;5073418;28;20228;-57
2023/05/13 11:23:57;;;;;;;6.13;4.45;;;39.70;24.40;;;;;;5073519;28;20182;-57
2023/05/13 11:26:24;;;;;;;4.70;4.35;;;40.10;23.90;;;;;;5073326;28;20690;-57
2023/05/13 11:28:56;;;;;;;7.20;4.28;;;40.40;23.80;;;;;;5073333;28;20241;-57
2023/05/13 11:31:26;;;;;;;8.35;4.50;;;40.60;23.40;;;;;;5073313;28;20205;-58
2023/05/13 11:34:09;;;;;;;9.85;5.03;;;41.00;23.30;;;;;;5073218;28;20248;-58
2023/05/13 11:36:37;;;;;;;8.27;4.07;;;41.30;22.50;;;;;;5073270;28;20202;-57
2023/05/13 11:39:10;;;;;;;4.70;4.28;;;41.50;21.90;;;;;;5059923;28;20207;-57
2023/05/13 11:41:37;;;;;;;4.07;3.60;;;41.80;21.20;;;;;;5052993;28;20658;-57
2023/05/13 11:44:05;;;;;;;4.15;3.75;;;41.80;21.60;;;;;;5053069;28;20206;-57
2023/05/13 11:46:33;;;;;;;4.78;4.00;;;42.00;21.20;;;;;;5053093;28;20232;-57
2023/05/13 11:49:00;;;;;;;4.13;3.50;;;42.20;21.30;;;;;;5052799;28;20208;-58
2023/05/13 11:51:27;;;;;;;5.40;4.88;;;42.30;20.60;;;;;;5053193;28;20225;-58
2023/05/13 11:54:00;;;;;;;6.45;4.10;;;42.50;20.60;;;;;;5055499;28;20258;-58
2023/05/13 11:56:27;;;;;;;4.22;3.83;;;42.60;20.70;;;;;;5057142;28;20631;-58
2023/05/13 11:58:54;;;;;;;4.07;3.67;;;42.70;20.60;;;;;;5057031;28;20230;-57
2023/05/13 12:01:21;;;;;;;4.45;4.05;;;42.90;19.90;;;;;;5057029;28;20210;-57
2023/05/13 12:03:49;;;;;;;8.38;4.00;;;43.10;20.00;;;;;;5056707;28;20202;-58
2023/05/13 12:06:16;;;;;;;5.80;3.72;;;43.30;19.70;;;;;;5056943;28;20213;-58
2023/05/13 12:08:46;;;;;;;3.60;3.30;;;43.50;19.40;;;;;;5060599;28;20671;-57
2023/05/13 12:11:13;;;;;;;4.45;3.20;;;43.70;19.50;;;;;;5076739;28;20202;-58
2023/05/13 12:13:41;;;;;;;7.28;3.53;;;43.40;19.60;;;;;;5076644;28;20228;-57
2023/05/13 12:16:09;;;;;;;4.28;3.72;;;42.40;20.60;;;;;;5076699;28;20222;-58
2023/05/13 12:18:37;;;;;;;5.10;4.40;;;41.20;21.00;;;;;;5076454;28;20251;-55
2023/05/13 12:21:16;;;;;;;4.13;3.70;;;40.30;21.40;;;;;;5076562;28;20233;-56
2023/05/13 12:23:42;;;;;;;5.20;4.70;;;39.00;21.70;;;;;;5076641;28;20184;-56
2023/05/13 12:26:10;;;;;;;4.82;4.43;;;37.90;23.00;;;;;;5076479;28;20248;-56
2023/05/13 12:28:37;;;;;;;5.38;4.85;;;36.70;24.30;;;;;;5076495;28;20201;-56
2023/05/13 12:31:05;;;;;;;5.03;4.25;;;35.70;25.50;;;;;;5076476;28;20202;-56
2023/05/13 12:33:33;;;;;;;7.40;4.35;;;35.00;26.10;;;;;;5076328;28;20308;-57
2023/05/13 12:36:19;;;;;;;4.50;4.07;;;35.40;27.10;;;;;;5076267;28;20226;-56